Time;durP1;ratioP1;P1;durP2;ratioP2;P2;SDS_P1;SDS_P2;PMS_P1;PMS_P2;Temp;Humidity;BMP_temperature;BMP_pressure;BME280_temperature;BME280_humidity;BME280_pressure;Samples;Min_cycle;Max_cycle;Signal;HPM_P1;HPM_P2
2021/03/08 00:00:13;;;;;;;8.63;7.88;;;;;;;;;;5111472;28;20178;-42
2021/03/08 00:02:38;;;;;;;9.07;8.23;;;;;;;;;;5110981;28;20173;-43
2021/03/08 00:05:04;;;;;;;9.27;8.20;;;;;;;;;;5111624;28;20726;-43
2021/03/08 00:07:30;;;;;;;8.77;7.97;;;;;;;;;;5110531;28;20215;-42
2021/03/08 00:09:55;;;;;;;7.95;7.15;;;;;;;;;;5110998;28;20583;-42
2021/03/08 00:12:20;;;;;;;8.60;7.00;;;;;;;;;;5111687;28;20180;-42
2021/03/08 00:14:45;;;;;;;8.97;8.07;;;;;;;;;;5111593;27;20245;-43
2021/03/08 00:17:10;;;;;;;9.38;8.32;;;;;;;;;;5110896;28;20651;-43
2021/03/08 00:19:35;;;;;;;9.45;8.45;;;;;;;;;;5110809;28;20272;-43
2021/03/08 00:22:00;;;;;;;9.63;8.70;;;;;;;;;;5111158;28;20180;-43
2021/03/08 00:24:26;;;;;;;9.20;8.40;;;;;;;;;;5110526;28;20813;-43
2021/03/08 00:26:51;;;;;;;9.93;9.02;;;;;;;;;;5111284;28;20173;-44
2021/03/08 00:29:16;;;;;;;9.75;8.82;;;;;;;;;;5111060;28;20923;-43
2021/03/08 00:31:41;;;;;;;11.50;10.30;;;;;;;;;;5110899;28;20173;-44
2021/03/08 00:34:06;;;;;;;10.02;8.75;;;;;;;;;;5110727;28;20182;-42
2021/03/08 00:36:31;;;;;;;9.50;8.63;;;;;;;;;;5111070;28;20202;-43
2021/03/08 00:38:56;;;;;;;10.13;9.13;;;;;;;;;;5111080;28;20166;-43
2021/03/08 00:41:21;;;;;;;10.77;9.70;;;;;;;;;;5110736;28;20216;-44
2021/03/08 00:43:47;;;;;;;10.35;9.35;;;;;;;;;;5110378;28;20204;-43
2021/03/08 00:46:12;;;;;;;11.80;10.18;;;;;;;;;;5110292;28;20180;-43
2021/03/08 00:48:37;;;;;;;10.02;9.13;;;;;;;;;;5110912;28;20198;-44
2021/03/08 00:51:02;;;;;;;10.40;9.40;;;;;;;;;;5109661;28;20178;-43
2021/03/08 00:53:27;;;;;;;10.27;9.10;;;;;;;;;;5110249;28;20218;-43
2021/03/08 00:55:52;;;;;;;12.60;9.20;;;;;;;;;;5110235;28;20324;-43
2021/03/08 00:58:18;;;;;;;11.73;10.53;;;;;;;;;;5110293;28;20643;-43
2021/03/08 01:00:43;;;;;;;10.95;9.77;;;;;;;;;;5109665;28;20218;-43
2021/03/08 01:03:08;;;;;;;11.70;10.60;;;;;;;;;;5109960;28;20193;-43
2021/03/08 01:05:33;;;;;;;11.80;10.30;;;;;;;;;;5110218;28;20401;-43
2021/03/08 01:07:58;;;;;;;12.23;10.20;;;;;;;;;;5109980;28;20313;-44
2021/03/08 01:10:26;;;;;;;11.13;9.97;;;;;;;;;;5110316;28;20182;-44
2021/03/08 01:12:51;;;;;;;12.13;10.77;;;;;;;;;;5109935;28;20176;-44
2021/03/08 01:15:16;;;;;;;11.10;10.00;;;;;;;;;;5110328;28;20572;-43
2021/03/08 01:17:42;;;;;;;11.80;10.60;;;;;;;;;;5109501;28;20166;-44
2021/03/08 01:20:08;;;;;;;13.57;11.30;;;;;;;;;;5110063;28;20176;-43
2021/03/08 01:22:33;;;;;;;12.10;11.00;;;;;;;;;;5109872;28;20615;-43
2021/03/08 01:24:58;;;;;;;14.52;12.55;;;;;;;;;;5109929;28;21035;-44
2021/03/08 01:27:24;;;;;;;13.47;12.07;;;;;;;;;;5109591;28;20670;-43
2021/03/08 01:29:49;;;;;;;11.45;10.45;;;;;;;;;;5109599;28;20675;-43
2021/03/08 01:32:14;;;;;;;12.98;11.68;;;;;;;;;;5110210;28;20657;-42
2021/03/08 01:34:39;;;;;;;12.20;10.98;;;;;;;;;;5109538;28;20169;-43
2021/03/08 01:37:04;;;;;;;15.75;11.32;;;;;;;;;;5109068;28;20233;-43
2021/03/08 01:39:29;;;;;;;13.13;11.30;;;;;;;;;;5109922;28;20688;-43
2021/03/08 01:41:54;;;;;;;12.65;11.35;;;;;;;;;;5109545;28;20199;-43
2021/03/08 01:44:20;;;;;;;12.68;11.38;;;;;;;;;;5109160;28;20165;-44
2021/03/08 01:46:45;;;;;;;13.30;12.00;;;;;;;;;;5109672;28;20683;-43
2021/03/08 01:49:10;;;;;;;14.87;13.27;;;;;;;;;;5109017;28;20345;-44
2021/03/08 01:51:35;;;;;;;12.97;11.60;;;;;;;;;;5109664;28;20177;-42
2021/03/08 01:54:01;;;;;;;13.53;12.03;;;;;;;;;;5108853;28;20697;-42
2021/03/08 01:56:26;;;;;;;12.90;11.70;;;;;;;;;;5109641;28;20204;-43
2021/03/08 01:58:52;;;;;;;12.13;10.93;;;;;;;;;;5108420;28;20703;-42
2021/03/08 02:01:17;;;;;;;15.50;12.83;;;;;;;;;;5108802;28;20266;-42
2021/03/08 02:03:42;;;;;;;12.73;11.33;;;;;;;;;;5109148;28;20252;-43
2021/03/08 02:06:07;;;;;;;13.70;11.63;;;;;;;;;;5109066;28;20271;-43
2021/03/08 02:08:32;;;;;;;13.57;12.27;;;;;;;;;;5108784;28;20534;-42
2021/03/08 02:10:58;;;;;;;13.20;11.40;;;;;;;;;;5109107;28;20173;-42
2021/03/08 02:13:42;;;;;;;13.80;11.87;;;;;;;;;;5109951;28;20177;-43
2021/03/08 02:16:10;;;;;;;15.00;13.40;;;;;;;;;;5108873;28;20207;-42
2021/03/08 02:18:38;;;;;;;13.63;12.23;;;;;;;;;;5109243;28;20645;-42
2021/03/08 02:21:09;;;;;;;15.63;14.03;;;;;;;;;;5108597;28;20584;-43
2021/03/08 02:23:53;;;;;;;15.60;13.33;;;;;;;;;;5109586;28;20572;-42
2021/03/08 02:26:18;;;;;;;16.43;14.10;;;;;;;;;;5109411;28;20589;-43
2021/03/08 02:28:54;;;;;;;13.93;12.07;;;;;;;;;;5108940;28;21166;-43
2021/03/08 02:31:21;;;;;;;14.93;13.00;;;;;;;;;;5108802;28;20176;-43
2021/03/08 02:33:55;;;;;;;13.47;12.00;;;;;;;;;;5108790;28;20596;-43
2021/03/08 02:36:22;;;;;;;13.50;12.10;;;;;;;;;;5108807;28;20990;-43
2021/03/08 02:38:54;;;;;;;14.20;12.70;;;;;;;;;;5108447;28;20591;-43
2021/03/08 02:41:20;;;;;;;21.20;14.67;;;;;;;;;;5108753;28;20627;-43
2021/03/08 02:43:48;;;;;;;17.37;14.53;;;;;;;;;;5108821;28;20800;-42
2021/03/08 02:46:18;;;;;;;17.83;14.97;;;;;;;;;;5108689;28;20636;-42
2021/03/08 02:48:44;;;;;;;16.47;14.10;;;;;;;;;;5108836;28;20591;-45
2021/03/08 02:51:10;;;;;;;16.27;14.10;;;;;;;;;;5107941;28;21176;-45
2021/03/08 02:53:37;;;;;;;19.70;15.70;;;;;;;;;;5109189;28;20617;-44
2021/03/08 02:56:05;;;;;;;17.33;14.80;;;;;;;;;;5108908;28;20746;-44
2021/03/08 02:58:32;;;;;;;18.87;15.97;;;;;;;;;;5109315;28;20568;-46
2021/03/08 03:00:58;;;;;;;16.97;14.00;;;;;;;;;;5108658;28;20596;-44
2021/03/08 03:03:24;;;;;;;16.97;15.00;;;;;;;;;;5108017;28;20598;-44
2021/03/08 03:05:49;;;;;;;19.33;16.17;;;;;;;;;;5108264;28;20590;-44
2021/03/08 03:08:16;;;;;;;23.50;18.70;;;;;;;;;;5108428;28;20197;-42
2021/03/08 03:10:41;;;;;;;20.40;16.47;;;;;;;;;;5112128;28;20181;-42
2021/03/08 03:13:06;;;;;;;19.07;17.00;;;;;;;;;;5111986;28;20601;-42
2021/03/08 03:15:34;;;;;;;20.83;17.17;;;;;;;;;;5112949;28;20704;-42
2021/03/08 03:17:59;;;;;;;18.53;16.33;;;;;;;;;;5112450;28;20163;-43
2021/03/08 03:20:25;;;;;;;21.23;18.70;;;;;;;;;;5112585;28;20614;-42
2021/03/08 03:22:50;;;;;;;19.70;17.13;;;;;;;;;;5112554;28;20172;-42
2021/03/08 03:25:19;;;;;;;20.17;15.90;;;;;;;;;;5112457;27;20181;-42
2021/03/08 03:27:45;;;;;;;19.40;16.83;;;;;;;;;;5112135;28;20202;-43
2021/03/08 03:30:11;;;;;;;19.20;15.63;;;;;;;;;;5112387;27;20617;-43
2021/03/08 03:32:36;;;;;;;18.80;16.10;;;;;;;;;;5111768;28;21191;-43
2021/03/08 03:35:02;;;;;;;19.10;16.43;;;;;;;;;;5111694;28;20169;-43
2021/03/08 03:37:28;;;;;;;22.80;18.20;;;;;;;;;;5111975;28;20911;-43
2021/03/08 03:39:53;;;;;;;19.30;15.83;;;;;;;;;;5112036;28;20647;-43
2021/03/08 03:42:18;;;;;;;20.80;16.07;;;;;;;;;;5109863;28;20165;-43
2021/03/08 03:44:44;;;;;;;23.87;17.00;;;;;;;;;;5107648;28;20172;-43
2021/03/08 03:47:10;;;;;;;18.43;15.90;;;;;;;;;;5111300;28;20180;-42
2021/03/08 03:49:36;;;;;;;23.60;18.50;;;;;;;;;;5111647;28;20167;-43
2021/03/08 03:52:01;;;;;;;23.03;19.27;;;;;;;;;;5110930;28;20648;-43
2021/03/08 03:54:26;;;;;;;21.13;17.00;;;;;;;;;;5111607;28;20280;-43
2021/03/08 03:56:56;;;;;;;20.57;16.93;;;;;;;;;;5111413;28;20207;-43
2021/03/08 03:59:22;;;;;;;21.63;16.27;;;;;;;;;;5111776;28;20184;-43
2021/03/08 04:01:53;;;;;;;21.00;17.17;;;;;;;;;;5111456;27;20981;-42
2021/03/08 04:04:21;;;;;;;25.30;19.40;;;;;;;;;;5110757;28;20590;-42
2021/03/08 04:06:50;;;;;;;21.97;17.67;;;;;;;;;;5109140;28;20603;-43
2021/03/08 04:09:17;;;;;;;22.03;17.83;;;;;;;;;;5111383;28;20687;-43
2021/03/08 04:11:43;;;;;;;20.87;17.50;;;;;;;;;;5109958;28;20592;-42
2021/03/08 04:14:09;;;;;;;26.03;18.40;;;;;;;;;;5110535;28;20637;-43
2021/03/08 04:16:39;;;;;;;20.27;16.17;;;;;;;;;;5110971;28;20656;-43
2021/03/08 04:19:05;;;;;;;23.33;18.70;;;;;;;;;;5111074;28;21058;-42
2021/03/08 04:21:34;;;;;;;20.40;17.93;;;;;;;;;;5111175;27;20674;-42
2021/03/08 04:24:00;;;;;;;22.97;18.17;;;;;;;;;;5103019;27;20948;-43
2021/03/08 04:26:25;;;;;;;20.50;16.90;;;;;;;;;;5110986;28;20605;-44
2021/03/08 04:28:51;;;;;;;22.30;17.23;;;;;;;;;;5110851;28;20198;-43
2021/03/08 04:31:16;;;;;;;20.83;17.17;;;;;;;;;;5110435;28;20174;-42
2021/03/08 04:33:42;;;;;;;22.03;17.93;;;;;;;;;;5110294;28;20182;-42
2021/03/08 04:36:08;;;;;;;22.83;17.53;;;;;;;;;;5106841;28;20633;-43
2021/03/08 04:38:34;;;;;;;22.83;17.63;;;;;;;;;;5104473;28;20787;-43
2021/03/08 04:40:59;;;;;;;23.20;18.70;;;;;;;;;;5107861;28;20269;-42
2021/03/08 04:43:24;;;;;;;23.10;18.43;;;;;;;;;;5107411;28;20204;-42
2021/03/08 04:45:54;;;;;;;23.97;18.70;;;;;;;;;;5104550;28;20170;-43
2021/03/08 04:48:19;;;;;;;24.87;18.00;;;;;;;;;;5106723;28;20187;-43
2021/03/08 04:50:46;;;;;;;23.20;17.73;;;;;;;;;;5107146;28;20596;-43
2021/03/08 04:53:13;;;;;;;21.80;18.70;;;;;;;;;;5106510;28;20177;-42
2021/03/08 04:55:39;;;;;;;21.87;17.17;;;;;;;;;;5107010;28;20724;-42
2021/03/08 04:58:04;;;;;;;22.77;19.10;;;;;;;;;;5106004;28;20643;-42
2021/03/08 05:00:29;;;;;;;31.35;21.98;;;;;;;;;;5107044;28;20208;-42
2021/03/08 05:02:55;;;;;;;24.87;19.40;;;;;;;;;;5106099;28;20178;-42
2021/03/08 05:05:22;;;;;;;25.30;18.90;;;;;;;;;;5107942;28;20169;-42
2021/03/08 05:07:48;;;;;;;24.27;18.30;;;;;;;;;;5109198;28;20181;-42
2021/03/08 05:10:17;;;;;;;21.77;18.17;;;;;;;;;;5109807;28;20963;-42
2021/03/08 05:12:43;;;;;;;20.00;16.50;;;;;;;;;;5110349;28;20256;-44
2021/03/08 05:15:10;;;;;;;21.90;18.30;;;;;;;;;;5108940;28;21239;-44
2021/03/08 05:17:35;;;;;;;24.40;18.40;;;;;;;;;;5109173;28;20198;-43
2021/03/08 05:20:03;;;;;;;20.50;16.90;;;;;;;;;;5108816;28;21114;-43
2021/03/08 05:22:28;;;;;;;22.77;17.97;;;;;;;;;;5108813;28;20862;-45
2021/03/08 05:24:54;;;;;;;18.73;16.50;;;;;;;;;;5109703;28;20661;-44
2021/03/08 05:27:19;;;;;;;22.70;17.30;;;;;;;;;;5109197;28;20518;-44
2021/03/08 05:29:46;;;;;;;23.00;18.60;;;;;;;;;;5110700;28;20265;-44
2021/03/08 05:32:16;;;;;;;22.97;19.10;;;;;;;;;;5107224;28;20174;-43
2021/03/08 05:34:46;;;;;;;21.83;17.90;;;;;;;;;;5104854;28;20960;-46
2021/03/08 05:37:14;;;;;;;22.83;18.33;;;;;;;;;;5105700;28;20648;-42
2021/03/08 05:39:43;;;;;;;24.80;19.60;;;;;;;;;;5104389;28;20626;-42
2021/03/08 05:42:10;;;;;;;24.40;18.60;;;;;;;;;;5104291;28;20596;-42
2021/03/08 05:44:35;;;;;;;22.67;19.07;;;;;;;;;;5106531;28;21411;-43
2021/03/08 05:47:14;;;;;;;33.93;20.90;;;;;;;;;;5105302;28;20764;-43
2021/03/08 05:49:56;;;;;;;26.33;19.77;;;;;;;;;;5106032;28;20174;-42
2021/03/08 05:52:45;;;;;;;24.77;18.40;;;;;;;;;;5104092;28;20606;-47
2021/03/08 05:55:29;;;;;;;26.47;20.60;;;;;;;;;;5106090;28;20699;-42
2021/03/08 05:58:18;;;;;;;22.67;19.30;;;;;;;;;;5086266;28;20637;-42
2021/03/08 06:00:58;;;;;;;26.70;19.13;;;;;;;;;;5103525;28;20592;-43
2021/03/08 06:03:37;;;;;;;26.90;20.57;;;;;;;;;;5103168;28;20583;-43
2021/03/08 06:06:05;;;;;;;31.20;20.37;;;;;;;;;;5105687;28;20583;-42
2021/03/08 06:08:34;;;;;;;28.07;18.67;;;;;;;;;;5107362;28;20623;-42
2021/03/08 06:11:04;;;;;;;25.70;21.07;;;;;;;;;;5106613;28;20695;-42
2021/03/08 06:13:31;;;;;;;30.63;20.60;;;;;;;;;;5105863;28;20575;-44
2021/03/08 06:15:59;;;;;;;28.70;21.30;;;;;;;;;;5106256;28;20651;-44
2021/03/08 06:18:27;;;;;;;33.43;23.10;;;;;;;;;;5104664;28;20598;-44
2021/03/08 06:20:55;;;;;;;28.40;21.40;;;;;;;;;;5108305;28;20645;-43
2021/03/08 06:23:22;;;;;;;31.00;22.10;;;;;;;;;;5108467;28;20614;-44
2021/03/08 06:25:47;;;;;;;29.47;22.00;;;;;;;;;;5108784;28;20588;-44
2021/03/08 06:28:12;;;;;;;30.42;21.83;;;;;;;;;;5106652;28;20602;-44
2021/03/08 06:30:37;;;;;;;34.07;24.13;;;;;;;;;;5108960;28;20632;-44
2021/03/08 06:33:03;;;;;;;29.13;23.03;;;;;;;;;;5109089;28;20172;-44
2021/03/08 06:35:28;;;;;;;29.90;22.27;;;;;;;;;;5108665;28;20201;-44
2021/03/08 06:37:54;;;;;;;28.67;21.38;;;;;;;;;;5108843;28;20683;-44
2021/03/08 06:40:19;;;;;;;30.70;22.60;;;;;;;;;;5108451;28;20293;-44
2021/03/08 06:42:45;;;;;;;25.90;20.58;;;;;;;;;;5108681;28;20674;-44
2021/03/08 06:45:10;;;;;;;31.17;21.80;;;;;;;;;;5111171;28;20176;-44
2021/03/08 06:47:36;;;;;;;26.17;19.63;;;;;;;;;;5112355;28;20176;-44
2021/03/08 06:50:01;;;;;;;29.57;21.23;;;;;;;;;;5111726;28;20618;-43
2021/03/08 06:52:38;;;;;;;29.17;22.30;;;;;;;;;;5113239;28;20213;-42
2021/03/08 06:55:03;;;;;;;29.23;21.70;;;;;;;;;;5112272;28;20318;-43
2021/03/08 06:57:30;;;;;;;26.73;19.90;;;;;;;;;;5113104;28;21307;-43
2021/03/08 07:00:12;;;;;;;30.40;21.93;;;;;;;;;;5111101;28;20628;-42
2021/03/08 07:02:41;;;;;;;28.23;21.60;;;;;;;;;;5112078;28;20618;-42
2021/03/08 07:05:07;;;;;;;28.07;19.80;;;;;;;;;;5112440;27;21201;-42
2021/03/08 07:07:48;;;;;;;25.63;19.63;;;;;;;;;;5112070;28;20673;-42
2021/03/08 07:10:14;;;;;;;34.37;22.80;;;;;;;;;;5112227;28;20677;-42
2021/03/08 07:12:49;;;;;;;29.13;21.60;;;;;;;;;;5112787;28;20605;-42
2021/03/08 07:15:14;;;;;;;32.17;21.70;;;;;;;;;;5112985;28;20192;-42
2021/03/08 07:17:40;;;;;;;33.50;22.77;;;;;;;;;;5112669;28;21031;-43
2021/03/08 07:20:07;;;;;;;35.10;24.53;;;;;;;;;;5112609;28;20189;-42
2021/03/08 07:22:35;;;;;;;32.80;22.23;;;;;;;;;;5112776;28;20614;-43
2021/03/08 07:25:02;;;;;;;32.30;20.77;;;;;;;;;;5111747;28;20609;-43
2021/03/08 07:27:43;;;;;;;29.23;21.87;;;;;;;;;;5112146;28;20595;-43
2021/03/08 07:30:09;;;;;;;31.30;22.30;;;;;;;;;;5111339;28;21397;-43
2021/03/08 07:32:37;;;;;;;27.43;20.90;;;;;;;;;;5112095;28;20619;-42
2021/03/08 07:35:02;;;;;;;28.53;21.73;;;;;;;;;;5112214;28;20607;-42
2021/03/08 07:37:27;;;;;;;28.10;20.73;;;;;;;;;;5111711;28;20723;-43
2021/03/08 07:39:52;;;;;;;32.37;21.37;;;;;;;;;;5112065;28;20668;-43
2021/03/08 07:42:18;;;;;;;27.77;20.37;;;;;;;;;;5118623;27;20253;-43
2021/03/08 07:44:49;;;;;;;28.47;20.50;;;;;;;;;;5128278;27;20182;-43
2021/03/08 07:47:16;;;;;;;25.67;20.90;;;;;;;;;;5111409;28;20182;-48
2021/03/08 07:49:41;;;;;;;33.57;22.47;;;;;;;;;;5111834;28;20624;-43
2021/03/08 07:52:08;;;;;;;30.50;21.97;;;;;;;;;;5112030;28;20676;-44
2021/03/08 07:54:52;;;;;;;33.53;22.87;;;;;;;;;;5111527;28;20836;-44
2021/03/08 07:57:17;;;;;;;31.90;20.90;;;;;;;;;;5110577;28;20623;-44
2021/03/08 07:59:43;;;;;;;25.83;19.23;;;;;;;;;;5110436;28;20922;-43
2021/03/08 08:02:08;;;;;;;28.00;18.73;;;;;;;;;;5108761;28;20577;-42
2021/03/08 08:04:33;;;;;;;24.43;18.70;;;;;;;;;;5110835;28;20174;-43
2021/03/08 08:06:59;;;;;;;24.20;18.48;;;;;;;;;;5111649;27;20170;-43
2021/03/08 08:09:25;;;;;;;26.10;19.00;;;;;;;;;;5112391;27;20720;-43
2021/03/08 08:11:51;;;;;;;23.00;17.90;;;;;;;;;;5109213;28;20632;-43
2021/03/08 08:14:18;;;;;;;26.23;19.23;;;;;;;;;;5111066;28;20174;-43
2021/03/08 08:16:46;;;;;;;22.23;17.43;;;;;;;;;;5124008;27;20650;-44
2021/03/08 08:19:12;;;;;;;25.20;18.47;;;;;;;;;;5124402;27;20651;-43
2021/03/08 08:21:39;;;;;;;25.63;18.80;;;;;;;;;;5110701;28;20590;-44
2021/03/08 08:24:26;;;;;;;24.47;19.57;;;;;;;;;;5110881;28;20195;-43
2021/03/08 08:26:55;;;;;;;21.87;16.93;;;;;;;;;;5110840;28;21200;-44
2021/03/08 08:29:24;;;;;;;20.27;15.20;;;;;;;;;;5110710;28;20622;-42
2021/03/08 08:32:00;;;;;;;23.57;16.90;;;;;;;;;;5110817;28;21192;-43
2021/03/08 08:34:55;;;;;;;20.97;14.70;;;;;;;;;;5111001;28;20593;-42
2021/03/08 08:37:21;;;;;;;19.90;14.40;;;;;;;;;;5092333;28;20658;-43
2021/03/08 08:39:52;;;;;;;19.40;14.90;;;;;;;;;;5110818;28;21014;-43
2021/03/08 08:42:24;;;;;;;22.53;14.97;;;;;;;;;;5110900;28;21117;-42
2021/03/08 08:44:51;;;;;;;18.67;13.60;;;;;;;;;;5111227;28;20666;-44
2021/03/08 08:47:24;;;;;;;19.33;14.20;;;;;;;;;;5110431;28;21036;-42
2021/03/08 08:49:54;;;;;;;19.33;14.07;;;;;;;;;;5110517;28;20959;-43
2021/03/08 08:52:39;;;;;;;25.73;15.33;;;;;;;;;;5110630;28;21123;-42
2021/03/08 08:55:04;;;;;;;17.77;14.00;;;;;;;;;;5110399;28;20687;-42
2021/03/08 08:57:30;;;;;;;18.60;13.90;;;;;;;;;;5110207;28;20651;-43
2021/03/08 09:00:13;;;;;;;18.65;15.05;;;;;;;;;;5110406;28;20182;-43
2021/03/08 09:02:39;;;;;;;17.23;12.30;;;;;;;;;;5110676;28;20257;-42
2021/03/08 09:05:24;;;;;;;18.50;12.35;;;;;;;;;;5110315;28;20683;-43
2021/03/08 09:08:09;;;;;;;16.93;12.40;;;;;;;;;;5110016;28;20181;-42
2021/03/08 09:10:34;;;;;;;15.80;12.10;;;;;;;;;;5089900;28;21149;-44
2021/03/08 09:13:09;;;;;;;15.63;12.40;;;;;;;;;;5089931;28;20584;-43
2021/03/08 09:15:35;;;;;;;14.60;11.80;;;;;;;;;;5089268;28;20177;-43
2021/03/08 09:18:02;;;;;;;15.07;11.82;;;;;;;;;;5089503;28;20573;-43
2021/03/08 09:20:28;;;;;;;15.73;11.63;;;;;;;;;;5106501;28;20268;-43
2021/03/08 09:22:55;;;;;;;15.10;11.40;;;;;;;;;;5110248;28;20577;-43
2021/03/08 09:25:24;;;;;;;14.20;11.03;;;;;;;;;;5110177;28;20626;-43
2021/03/08 09:27:50;;;;;;;17.10;11.30;;;;;;;;;;5109760;28;20576;-43
2021/03/08 09:30:22;;;;;;;11.83;9.90;;;;;;;;;;5109083;28;21147;-43
2021/03/08 09:33:05;;;;;;;12.70;9.10;;;;;;;;;;5110102;28;20167;-43
2021/03/08 09:35:31;;;;;;;13.00;9.50;;;;;;;;;;5109909;28;20668;-42
2021/03/08 09:37:57;;;;;;;14.67;10.33;;;;;;;;;;5109346;28;20572;-43
2021/03/08 09:40:24;;;;;;;13.07;10.40;;;;;;;;;;5108946;28;21196;-43
2021/03/08 09:42:50;;;;;;;13.33;10.60;;;;;;;;;;5109563;28;20591;-43
2021/03/08 09:45:15;;;;;;;12.20;9.23;;;;;;;;;;5109599;28;20571;-43
2021/03/08 09:47:41;;;;;;;10.10;9.07;;;;;;;;;;5109598;28;20226;-47
2021/03/08 09:50:07;;;;;;;9.90;8.40;;;;;;;;;;5109146;28;20213;-43
2021/03/08 09:52:39;;;;;;;11.80;9.33;;;;;;;;;;5110327;28;20186;-44
2021/03/08 09:55:08;;;;;;;10.60;9.30;;;;;;;;;;5109203;28;20721;-42
2021/03/08 09:57:42;;;;;;;10.13;8.67;;;;;;;;;;5109224;28;21060;-42
2021/03/08 10:00:17;;;;;;;11.20;8.57;;;;;;;;;;5108959;28;20592;-43
2021/03/08 10:02:43;;;;;;;13.27;8.37;;;;;;;;;;5109651;28;20563;-43
2021/03/08 10:05:09;;;;;;;10.60;8.50;;;;;;;;;;5109262;28;20577;-43
2021/03/08 10:07:34;;;;;;;11.87;9.43;;;;;;;;;;5109362;28;20264;-44
2021/03/08 10:10:09;;;;;;;10.63;9.02;;;;;;;;;;5108662;28;20599;-43
2021/03/08 10:12:34;;;;;;;12.30;8.90;;;;;;;;;;5109371;28;20181;-44
2021/03/08 10:15:00;;;;;;;10.93;8.50;;;;;;;;;;5109544;28;21156;-43
2021/03/08 10:17:26;;;;;;;12.47;8.60;;;;;;;;;;5109022;28;20197;-45
2021/03/08 10:19:54;;;;;;;9.77;7.30;;;;;;;;;;5108485;28;20258;-44
2021/03/08 10:22:33;;;;;;;7.03;6.33;;;;;;;;;;5109266;28;20177;-44
2021/03/08 10:24:58;;;;;;;7.30;5.97;;;;;;;;;;5108819;28;21167;-44
2021/03/08 10:27:23;;;;;;;7.63;6.40;;;;;;;;;;5109324;28;20567;-44
2021/03/08 10:29:51;;;;;;;9.23;6.47;;;;;;;;;;5109031;28;20177;-43
2021/03/08 10:32:16;;;;;;;6.20;5.60;;;;;;;;;;5109061;28;20295;-44
2021/03/08 10:34:42;;;;;;;7.77;6.87;;;;;;;;;;5109106;28;20691;-43
2021/03/08 10:37:11;;;;;;;5.73;5.23;;;;;;;;;;5108716;28;20196;-43
2021/03/08 10:39:36;;;;;;;6.87;5.73;;;;;;;;;;5108997;28;20191;-43
2021/03/08 10:42:01;;;;;;;6.70;5.90;;;;;;;;;;5108393;28;20594;-43
2021/03/08 10:44:26;;;;;;;7.87;6.07;;;;;;;;;;5109343;28;20167;-43
2021/03/08 10:46:52;;;;;;;9.83;6.70;;;;;;;;;;5108988;28;20600;-44
2021/03/08 10:49:17;;;;;;;7.60;6.60;;;;;;;;;;5108636;28;20526;-44
2021/03/08 10:51:42;;;;;;;6.78;5.97;;;;;;;;;;5108872;28;20169;-43
2021/03/08 10:54:09;;;;;;;7.73;6.00;;;;;;;;;;5108357;28;20301;-42
2021/03/08 10:56:35;;;;;;;6.37;5.20;;;;;;;;;;5108676;28;20292;-43
2021/03/08 10:59:00;;;;;;;7.63;5.43;;;;;;;;;;5108825;28;20611;-42
2021/03/08 11:01:27;;;;;;;6.27;5.70;;;;;;;;;;5109009;28;20575;-44
2021/03/08 11:03:52;;;;;;;7.47;6.03;;;;;;;;;;5108445;28;20235;-43
2021/03/08 11:06:19;;;;;;;5.83;5.20;;;;;;;;;;5108656;28;21160;-43
2021/03/08 11:09:02;;;;;;;6.30;5.50;;;;;;;;;;5108752;28;20174;-42
2021/03/08 11:11:28;;;;;;;7.17;5.70;;;;;;;;;;5108739;28;20689;-42
2021/03/08 11:14:00;;;;;;;8.53;5.97;;;;;;;;;;5108414;28;20689;-43
2021/03/08 11:16:26;;;;;;;5.50;5.00;;;;;;;;;;5108621;28;20660;-44
2021/03/08 11:18:51;;;;;;;7.60;6.20;;;;;;;;;;5108632;28;21169;-43
2021/03/08 11:21:28;;;;;;;7.27;5.73;;;;;;;;;;5108476;28;20203;-43
2021/03/08 11:23:54;;;;;;;9.03;6.13;;;;;;;;;;5108471;28;20173;-43
2021/03/08 11:26:20;;;;;;;9.37;6.80;;;;;;;;;;5108341;28;20604;-43
2021/03/08 11:28:45;;;;;;;7.00;6.40;;;;;;;;;;5108142;28;20639;-43
2021/03/08 11:31:23;;;;;;;6.97;6.30;;;;;;;;;;5109255;28;21556;-43
2021/03/08 11:33:50;;;;;;;7.53;6.70;;;;;;;;;;5111967;28;20171;-43
2021/03/08 11:36:25;;;;;;;11.27;9.70;;;;;;;;;;5111929;28;20752;-42
2021/03/08 11:38:50;;;;;;;6.30;5.70;;;;;;;;;;5112396;28;20627;-43
2021/03/08 11:41:15;;;;;;;6.25;5.20;;;;;;;;;;5111793;28;20618;-43
2021/03/08 11:43:40;;;;;;;6.80;5.67;;;;;;;;;;5112103;28;20208;-42
2021/03/08 11:46:05;;;;;;;6.20;5.60;;;;;;;;;;5111482;28;20177;-42
2021/03/08 11:48:31;;;;;;;5.20;4.73;;;;;;;;;;5111915;28;20185;-43
2021/03/08 11:50:56;;;;;;;5.37;4.87;;;;;;;;;;5111729;28;20208;-42
2021/03/08 11:53:21;;;;;;;6.00;5.40;;;;;;;;;;5111436;28;20240;-43
2021/03/08 11:55:46;;;;;;;9.00;6.05;;;;;;;;;;5111600;28;20250;-42
2021/03/08 11:58:11;;;;;;;5.43;5.03;;;;;;;;;;5111424;28;20180;-42
2021/03/08 12:00:36;;;;;;;5.83;5.30;;;;;;;;;;5111664;28;20174;-43
2021/03/08 12:03:02;;;;;;;7.00;5.30;;;;;;;;;;5111472;28;20228;-43
2021/03/08 12:05:27;;;;;;;5.23;4.83;;;;;;;;;;5111414;28;20173;-42
2021/03/08 12:07:52;;;;;;;4.97;4.57;;;;;;;;;;5111525;28;20245;-42
2021/03/08 12:10:17;;;;;;;4.30;4.00;;;;;;;;;;5110980;28;20644;-42
2021/03/08 12:12:43;;;;;;;5.70;5.23;;;;;;;;;;5111384;28;20186;-42
2021/03/08 12:15:09;;;;;;;5.30;4.90;;;;;;;;;;5111181;28;20189;-42
2021/03/08 12:17:35;;;;;;;5.23;4.83;;;;;;;;;;5110746;28;20341;-42
2021/03/08 12:20:01;;;;;;;5.17;4.70;;;;;;;;;;5111021;28;20655;-42
2021/03/08 12:22:26;;;;;;;5.47;4.07;;;;;;;;;;5111260;28;20177;-42
2021/03/08 12:24:51;;;;;;;5.03;4.53;;;;;;;;;;5110950;28;20181;-43
2021/03/08 12:27:16;;;;;;;5.10;3.87;;;;;;;;;;5110646;28;20179;-42
2021/03/08 12:29:41;;;;;;;4.17;3.77;;;;;;;;;;5111345;28;20188;-43
2021/03/08 12:32:07;;;;;;;6.57;4.93;;;;;;;;;;5110917;28;20194;-42
2021/03/08 12:34:32;;;;;;;6.10;5.60;;;;;;;;;;5110167;28;20673;-42
2021/03/08 12:36:58;;;;;;;5.47;5.07;;;;;;;;;;5111033;28;20233;-43
2021/03/08 12:39:23;;;;;;;7.27;5.97;;;;;;;;;;5109979;28;20170;-43
2021/03/08 12:41:48;;;;;;;9.00;7.43;;;;;;;;;;5110355;28;20155;-43
2021/03/08 12:44:13;;;;;;;8.63;6.78;;;;;;;;;;5110593;28;20166;-43
2021/03/08 12:46:39;;;;;;;7.57;6.90;;;;;;;;;;5110504;28;20189;-42
2021/03/08 12:49:04;;;;;;;7.00;6.40;;;;;;;;;;5110519;28;20868;-43
2021/03/08 12:51:29;;;;;;;6.63;6.13;;;;;;;;;;5110895;28;20173;-44
2021/03/08 12:53:54;;;;;;;7.28;6.57;;;;;;;;;;5110139;28;20574;-44
2021/03/08 12:56:19;;;;;;;6.43;5.80;;;;;;;;;;5110337;28;20201;-44
2021/03/08 12:58:44;;;;;;;6.43;5.87;;;;;;;;;;5110478;28;20178;-42
2021/03/08 13:01:10;;;;;;;7.30;6.70;;;;;;;;;;5110287;28;20176;-42
2021/03/08 13:03:35;;;;;;;5.90;5.50;;;;;;;;;;5110319;28;20174;-42
2021/03/08 13:06:00;;;;;;;6.23;5.63;;;;;;;;;;5110112;28;20173;-43
2021/03/08 13:08:26;;;;;;;5.65;5.18;;;;;;;;;;5109584;28;20178;-51
2021/03/08 13:10:51;;;;;;;6.27;5.70;;;;;;;;;;5110446;28;20343;-41
2021/03/08 13:13:16;;;;;;;5.53;5.03;;;;;;;;;;5109893;28;20657;-42
2021/03/08 13:15:41;;;;;;;6.40;5.70;;;;;;;;;;5110004;28;20181;-42
2021/03/08 13:18:06;;;;;;;6.60;5.50;;;;;;;;;;5110096;28;20167;-43
2021/03/08 13:20:32;;;;;;;6.20;5.67;;;;;;;;;;5109944;28;20256;-43
2021/03/08 13:22:58;;;;;;;6.37;5.87;;;;;;;;;;5110240;28;20181;-42
2021/03/08 13:25:24;;;;;;;5.80;5.40;;;;;;;;;;5109451;28;20167;-42
2021/03/08 13:27:49;;;;;;;5.63;5.13;;;;;;;;;;5109721;28;20616;-44
2021/03/08 13:30:15;;;;;;;5.70;4.95;;;;;;;;;;5109873;28;20590;-44
2021/03/08 13:32:40;;;;;;;4.90;4.50;;;;;;;;;;5109931;28;20178;-41
2021/03/08 13:35:06;;;;;;;5.60;4.53;;;;;;;;;;5109071;28;20209;-42
2021/03/08 13:37:32;;;;;;;4.63;4.23;;;;;;;;;;5109957;28;20198;-42
2021/03/08 13:39:58;;;;;;;5.47;4.97;;;;;;;;;;5108597;28;20641;-44
2021/03/08 13:42:23;;;;;;;5.50;5.10;;;;;;;;;;5109454;28;20170;-44
2021/03/08 13:44:48;;;;;;;5.80;4.77;;;;;;;;;;5109642;28;20183;-44
2021/03/08 13:47:13;;;;;;;5.03;4.53;;;;;;;;;;5109316;28;20745;-43
2021/03/08 13:49:38;;;;;;;4.70;4.30;;;;;;;;;;5109282;28;20170;-43
2021/03/08 13:52:04;;;;;;;4.63;4.27;;;;;;;;;;5109667;28;20233;-43
2021/03/08 13:54:29;;;;;;;4.90;4.50;;;;;;;;;;5108156;28;20226;-43
2021/03/08 13:56:54;;;;;;;4.73;4.43;;;;;;;;;;5109300;28;20208;-44
2021/03/08 13:59:20;;;;;;;5.33;4.83;;;;;;;;;;5108997;28;20173;-43
2021/03/08 14:01:46;;;;;;;5.00;4.60;;;;;;;;;;5109427;28;20175;-43
2021/03/08 14:04:11;;;;;;;4.83;4.43;;;;;;;;;;5108770;28;20602;-44
2021/03/08 14:06:36;;;;;;;5.23;4.73;;;;;;;;;;5109195;28;20189;-44
2021/03/08 14:09:01;;;;;;;4.25;3.95;;;;;;;;;;5109058;28;20172;-44
2021/03/08 14:11:26;;;;;;;4.67;3.87;;;;;;;;;;5108975;28;20179;-43
2021/03/08 14:13:52;;;;;;;4.07;3.67;;;;;;;;;;5109575;28;20180;-41
2021/03/08 14:16:17;;;;;;;3.73;3.43;;;;;;;;;;5107840;28;20230;-43
2021/03/08 14:18:42;;;;;;;4.15;3.85;;;;;;;;;;5109342;28;20195;-44
2021/03/08 14:21:07;;;;;;;4.18;3.88;;;;;;;;;;5109315;28;20798;-42
2021/03/08 14:23:32;;;;;;;4.28;3.28;;;;;;;;;;5108713;28;20172;-43
2021/03/08 14:25:57;;;;;;;4.73;3.63;;;;;;;;;;5108770;28;20173;-43